Latest Weather Observations for Gatton

IDQ60901

Issued at 5:01 pm EST Monday 30 May 2016 (issued every 10 minutes, with the page automatically refreshed every 10 minutes)

About weather observations | Map of Brisbane area stations | Latest observations for Brisbane area | Other Formats
Station Details ID: 040082 Name: UNIVERSITY OF QUEENSLAND GATTON Lat: -27.54 Lon: 152.34 Height: 89.0 m
Data from the previous 72 hours. | See also: Recent months at Gatton
Date/Time
EST
Tmp

°C
App
Tmp
°C
Dew
Point
°C
Rel
Hum
%
Delta-T

°C
Wind Press
QNH
hPa
Press
MSL
hPa
Rain
since
9 am
mm
Dir
 
Spd
km/h
Gust
km/h
Spd
kts
Gust
kts
30/05:00pm 18.7 16.9 1.2 31 7.9 CALM 0 0 0 0 - - 0.0
30/04:30pm 20.8 18.6 1.1 27 9.0 SE 2 9 1 5 - - 0.0
30/04:00pm 21.7 19.9 1.4 26 9.4 CALM 0 7 0 4 - - 0.0
30/03:30pm 21.8 18.8 0.9 25 9.6 E 6 11 3 6 - - 0.0
30/03:00pm 22.3 20.1 1.3 25 9.7 NE 2 9 1 5 - - 0.0
30/02:30pm 22.7 19.7 1.7 25 9.8 N 7 13 4 7 - - 0.0
30/02:00pm 21.8 18.7 1.5 26 9.4 N 7 11 4 6 - - 0.0
30/01:30pm 21.9 19.0 2.6 28 9.1 NE 7 13 4 7 - - 0.0
30/01:00pm 21.4 18.3 3.6 31 8.6 NNE 9 17 5 9 - - 0.0
30/12:30pm 21.4 19.0 4.5 33 8.3 ENE 6 13 3 7 - - 0.0
30/12:00pm 21.1 19.7 5.5 36 7.8 N 2 7 1 4 - - 0.0
30/11:30am 19.0 17.2 5.5 41 6.6 ESE 4 9 2 5 - - 0.0
30/11:00am 18.4 16.3 5.9 44 6.2 S 6 9 3 5 - - 0.0
30/10:30am 17.4 16.0 5.4 45 5.8 W 2 9 1 5 - - 0.0
30/10:00am 15.5 12.8 5.4 51 4.8 W 9 13 5 7 - - 0.0
30/09:30am 14.0 12.6 5.4 56 4.1 W 2 13 1 7 - - 0.0
30/09:00am 11.6 10.1 5.0 64 3.0 SSW 2 7 1 4 - - 0.0
30/08:30am 9.2 6.2 4.2 71 2.2 W 9 13 5 7 - - 0.0
30/08:00am 7.6 4.6 4.0 78 1.6 W 9 13 5 7 - - 0.0
30/07:30am 5.8 4.4 3.5 85 1.0 CALM 0 0 0 0 - - 0.0
30/07:00am 3.6 1.9 1.8 88 0.7 CALM 0 2 0 1 - - 0.0
30/06:30am 3.3 -0.1 1.8 90 0.6 W 9 13 5 7 - - 0.0
30/06:00am 2.9 1.0 0.8 86 0.8 CALM 0 0 0 0 - - 0.0
30/05:30am 3.8 1.7 1.4 84 0.9 W 2 7 1 4 - - 0.0
30/05:00am 4.9 2.0 2.4 84 1.0 WSW 7 13 4 7 - - 0.0
30/04:30am 5.4 1.4 2.9 84 1.0 W 13 17 7 9 - - 0.0
30/04:00am 5.1 1.4 2.5 83 1.1 W 11 15 6 8 - - 0.0
30/03:30am 5.6 2.4 2.8 82 1.2 W 9 13 5 7 - - 0.0
30/03:00am 5.7 2.4 2.5 80 1.3 WSW 9 11 5 6 - - 0.0
30/02:30am 6.2 3.0 3.0 80 1.3 WSW 9 13 5 7 - - 0.0
30/02:00am 6.9 3.3 3.0 76 1.6 WSW 11 15 6 8 - - 0.0
30/01:30am 7.8 3.6 3.7 75 1.8 WSW 15 17 8 9 - - 0.0
30/01:00am 8.1 4.6 3.6 73 1.9 WSW 11 13 6 7 - - 0.0
30/12:30am 9.2 5.3 3.6 68 2.4 W 13 17 7 9 - - 0.0
30/12:00am 10.0 5.8 4.0 66 2.7 W 15 20 8 11 - - 0.0
 
Date/Time
EST
Tmp

°C
App
Tmp
°C
Dew
Point
°C
Rel
Hum
%
Delta-T

°C
Wind Press
QNH
hPa
Press
MSL
hPa
Rain
since
9 am
mm
Dir
 
Spd
km/h
Gust
km/h
Spd
kts
Gust
kts
29/11:30pm 11.1 7.7 4.1 62 3.1 W 11 15 6 8 - - 0.0
29/11:00pm 11.9 8.2 4.2 59 3.5 W 13 20 7 11 - - 0.0
29/10:30pm 12.2 7.7 4.2 58 3.6 WSW 17 24 9 13 - - 0.0
29/10:00pm 12.4 7.9 4.1 57 3.8 WSW 17 24 9 13 - - 0.0
29/09:30pm 12.7 8.2 4.2 56 3.9 WSW 17 24 9 13 - - 0.0
29/09:00pm 12.1 7.2 3.9 57 3.7 W 19 22 10 12 - - 0.0
29/08:30pm 12.4 8.2 3.6 55 3.9 WSW 15 20 8 11 - - 0.0
29/08:00pm 13.4 8.3 3.2 50 4.6 WSW 19 24 10 13 - - 0.0
29/07:30pm 13.8 8.6 3.3 49 4.7 W 20 24 11 13 - - 0.0
29/07:00pm 13.8 9.9 3.3 49 4.7 W 13 19 7 10 - - 0.0
29/06:30pm 14.3 10.4 3.2 47 5.0 WSW 13 17 7 9 - - 0.0
29/06:00pm 14.1 10.5 2.7 46 5.1 W 11 15 6 8 - - 0.0
29/05:30pm 17.0 13.3 2.6 38 6.6 W 11 15 6 8 - - 0.0
29/05:00pm 18.1 14.0 2.4 35 7.2 W 13 17 7 9 - - 0.0
29/04:30pm 20.0 16.0 2.8 32 8.1 W 13 20 7 11 - - 0.0
29/04:00pm 20.7 15.9 2.5 30 8.5 W 17 24 9 13 - - 0.0
29/03:30pm 20.7 16.4 3.0 31 8.4 W 15 20 8 11 - - 0.0
29/03:00pm 20.3 15.2 3.1 32 8.1 W 19 28 10 15 - - 0.0
29/02:30pm 20.9 15.7 2.7 30 8.6 W 19 26 10 14 - - 0.0
29/02:00pm 21.4 15.7 2.6 29 8.9 W 22 33 12 18 - - 0.0
29/01:30pm 21.3 15.7 3.5 31 8.5 W 22 33 12 18 - - 0.0
29/01:00pm 20.6 14.2 3.3 32 8.2 W 26 39 14 21 - - 0.0
29/12:30pm 19.3 13.3 3.1 34 7.6 W 24 33 13 18 - - 0.0
29/12:00pm 20.5 14.9 3.3 32 8.2 W 22 33 12 18 - - 0.0
29/11:30am 19.5 13.5 3.2 34 7.7 WSW 24 33 13 18 - - 0.0
29/11:00am 18.7 12.8 3.7 37 7.1 W 24 32 13 17 - - 0.0
29/10:30am 17.4 12.2 3.7 40 6.4 W 20 30 11 16 - - 0.0
29/10:00am 16.7 11.1 3.7 42 6.1 WSW 22 33 12 18 - - 0.0
29/09:30am 15.9 9.6 4.0 45 5.5 WSW 26 33 14 18 - - 0.0
29/09:00am 15.0 9.1 4.1 48 5.0 WSW 24 35 13 19 - - 0.0
29/08:30am 14.2 8.0 4.5 52 4.5 WSW 26 35 14 19 - - 0.0
29/08:00am 13.0 7.6 4.4 56 3.9 W 22 33 12 18 - - 0.0
29/07:30am 11.8 6.4 4.3 60 3.4 W 22 32 12 17 - - 0.0
29/07:00am 10.7 5.2 4.0 63 3.0 W 22 30 12 16 - - 0.0
29/06:30am 10.5 5.0 3.8 63 3.0 W 22 28 12 15 - - 0.0
29/06:00am 10.6 5.6 3.6 62 3.1 W 19 26 10 14 - - 0.0
29/05:30am 10.6 6.4 3.6 62 3.1 WSW 15 24 8 13 - - 0.0
29/05:00am 11.0 5.8 3.5 60 3.3 W 20 28 11 15 - - 0.0
29/04:30am 10.6 5.6 3.4 61 3.2 W 19 28 10 15 - - 0.0
29/04:00am 10.6 5.9 3.4 61 3.2 W 17 24 9 13 - - 0.0
29/03:30am 11.4 6.5 3.9 60 3.4 W 19 26 10 14 - - 0.0
29/03:00am 10.5 6.3 3.8 63 3.0 W 15 20 8 11 - - 0.0
29/02:30am 10.7 6.4 3.5 61 3.2 W 15 22 8 12 - - 0.0
29/02:00am 11.1 5.9 3.4 59 3.4 W 20 26 11 14 - - 0.0
29/01:30am 12.3 7.7 3.5 55 3.9 WSW 17 33 9 18 - - 0.0
29/01:00am 12.3 7.1 2.7 52 4.2 WSW 19 22 10 12 - - 0.0
29/12:30am 13.9 7.9 3.1 48 4.9 WSW 24 35 13 19 - - 0.0
29/12:00am 12.8 8.9 3.5 53 4.2 WSW 13 28 7 15 - - 0.0
 
Date/Time
EST
Tmp

°C
App
Tmp
°C
Dew
Point
°C
Rel
Hum
%
Delta-T

°C
Wind Press
QNH
hPa
Press
MSL
hPa
Rain
since
9 am
mm
Dir
 
Spd
km/h
Gust
km/h
Spd
kts
Gust
kts
28/11:30pm 12.1 8.8 2.3 51 4.3 WSW 9 17 5 9 - - 0.0
28/11:00pm 13.5 8.7 2.4 47 4.9 W 17 24 9 13 - - 0.0
28/10:30pm 13.6 9.1 2.2 46 5.0 W 15 20 8 11 - - 0.0
28/10:00pm 13.8 9.3 2.4 46 5.0 WNW 15 20 8 11 - - 0.0
28/09:30pm 14.2 10.5 2.5 45 5.2 W 11 17 6 9 - - 0.0
28/09:00pm 14.7 10.6 2.3 43 5.5 W 13 20 7 11 - - 0.0
28/08:30pm 15.0 10.6 2.5 43 5.6 W 15 20 8 11 - - 0.0
28/08:00pm 15.2 11.1 2.4 42 5.7 W 13 19 7 10 - - 0.0
28/07:30pm 16.1 10.9 2.5 40 6.1 W 19 28 10 15 - - 0.0
28/07:00pm 15.9 11.5 2.7 41 6.0 W 15 20 8 11 - - 0.0
28/06:30pm 16.9 12.1 2.5 38 6.5 W 17 20 9 11 - - 0.0
28/06:00pm 18.2 13.0 2.5 35 7.2 W 19 28 10 15 - - 0.0
28/05:30pm 17.8 12.6 2.2 35 7.1 W 19 30 10 16 - - 0.0
28/05:00pm 18.9 12.3 2.3 33 7.6 WSW 26 39 14 21 - - 0.0
28/04:30pm 20.1 12.2 2.0 30 8.4 W 33 52 18 28 - - 0.0
28/04:00pm 20.9 13.6 2.7 30 8.6 W 30 52 16 28 - - 0.0
28/03:51pm 21.2 13.6 3.0 30 8.6 W 32 52 17 28 - - 0.0
28/03:30pm 21.6 13.9 3.3 30 8.8 W 33 48 18 26 - - 0.0
28/03:00pm 21.9 14.4 3.6 30 8.8 W 32 52 17 28 - - 0.0
28/02:30pm 22.2 15.3 4.7 32 8.7 W 30 54 16 29 - - 0.0
28/02:00pm 22.9 15.8 5.3 32 8.8 W 32 50 17 27 - - 0.0
28/01:48pm 22.0 15.0 4.1 31 8.7 W 30 48 16 26 - - 0.0
28/01:30pm 21.6 14.7 4.7 33 8.3 W 30 44 16 24 - - 0.0
28/01:08pm 22.1 15.6 4.6 32 8.6 W 28 46 15 25 - - 0.0
28/01:00pm 21.6 14.1 4.7 33 8.3 W 33 50 18 27 - - 0.0
28/12:30pm 21.6 14.5 5.5 35 8.0 WSW 32 50 17 27 - - 0.0
28/12:24pm 21.8 14.7 5.7 35 8.1 W 32 50 17 27 - - 0.0
28/12:00pm 20.7 12.8 4.3 34 8.0 WSW 35 50 19 27 - - 0.0
28/11:43am 21.2 14.9 5.5 36 7.8 W 28 50 15 27 - - 0.0
28/11:30am 20.5 13.4 5.3 37 7.5 W 32 46 17 25 - - 0.0
28/11:08am 20.2 13.3 4.7 36 7.6 WSW 30 48 16 26 - - 0.0
28/11:00am 20.6 13.8 5.0 36 7.7 WSW 30 44 16 24 - - 0.0
28/10:30am 19.8 14.4 6.5 42 6.7 WSW 24 39 13 21 - - 0.0
28/10:00am 18.2 13.7 6.1 45 6.0 W 19 37 10 20 - - 0.0
28/09:30am 16.4 13.0 6.0 50 5.1 W 13 19 7 10 - - 0.0
28/09:00am 15.1 12.2 6.4 56 4.2 W 11 15 6 8 - - 0.0
28/08:30am 13.2 10.7 6.5 64 3.2 WSW 9 13 5 7 - - 0.0
28/08:00am 11.7 9.5 6.0 68 2.7 W 7 11 4 6 - - 0.0
28/07:30am 10.4 8.3 5.6 72 2.2 W 6 7 3 4 - - 0.0
28/07:00am 8.7 6.3 4.1 73 2.0 W 6 9 3 5 - - 0.0
28/06:30am 9.6 7.1 4.8 72 2.2 WNW 7 11 4 6 - - 0.0
28/06:00am 9.2 6.7 5.0 75 1.9 WNW 7 9 4 5 - - 0.0
28/05:30am 10.0 7.5 4.8 70 2.3 WNW 7 11 4 6 - - 0.0
28/05:00am 10.4 7.2 5.0 69 2.5 NW 11 13 6 7 - - 0.0
28/04:30am 10.7 8.2 4.8 67 2.7 NW 7 11 4 6 - - 0.0
28/04:00am 11.5 7.9 4.9 64 3.0 W 13 19 7 10 - - 0.0
28/03:30am 11.7 8.8 4.7 62 3.2 WSW 9 19 5 10 - - 0.0
28/03:00am 12.4 8.4 4.9 60 3.5 W 15 20 8 11 - - 0.0
28/02:30am 12.6 8.2 4.8 59 3.6 WSW 17 26 9 14 - - 0.0
28/02:00am 12.8 7.9 5.0 59 3.6 WSW 20 30 11 16 - - 0.0
28/01:30am 13.4 8.2 5.6 59 3.7 WSW 22 30 12 16 - - 0.0
28/01:00am 13.7 8.9 5.6 58 3.8 WSW 20 30 11 16 - - 0.0
28/12:30am 14.0 8.5 5.9 58 3.9 W 24 33 13 18 - - 0.0
28/12:00am 13.8 9.1 5.9 59 3.8 W 20 32 11 17 - - 0.0
 
Date/Time
EST
Tmp

°C
App
Tmp
°C
Dew
Point
°C
Rel
Hum
%
Delta-T

°C
Wind Press
QNH
hPa
Press
MSL
hPa
Rain
since
9 am
mm
Dir
 
Spd
km/h
Gust
km/h
Spd
kts
Gust
kts
27/11:30pm 13.8 9.3 5.9 59 3.8 W 19 24 10 13 - - 0.0
27/11:00pm 13.6 10.4 6.7 63 3.3 W 13 17 7 9 - - 0.0
27/10:30pm 13.2 10.3 6.5 64 3.2 WSW 11 15 6 8 - - 0.0
27/10:00pm 13.9 10.7 6.7 62 3.5 W 13 19 7 10 - - 0.0
27/09:30pm 14.0 11.2 7.1 63 3.4 WSW 11 17 6 9 - - 0.0
27/09:00pm 14.9 11.5 7.5 61 3.7 W 15 24 8 13 - - 0.0
27/08:30pm 15.6 13.0 7.6 59 4.0 W 11 17 6 9 - - 0.0
27/08:00pm 16.6 13.2 7.8 56 4.4 W 15 22 8 12 - - 0.0
27/07:30pm 16.6 14.2 8.6 59 4.1 W 11 17 6 9 - - 0.0
27/07:00pm 17.0 14.9 8.4 57 4.4 W 9 19 5 10 - - 0.0
27/06:30pm 17.8 15.5 8.9 56 4.6 W 11 19 6 10 - - 0.0
27/06:00pm 18.2 15.6 9.3 56 4.7 W 13 19 7 10 - - 0.0
27/05:30pm 19.0 15.7 9.5 54 5.0 W 17 26 9 14 - - 0.0

Latest Capital City Observations: Canberra | Sydney | Melbourne | Brisbane | Adelaide | Perth | Hobart | Darwin

Other Formats:

Comma delimited format used in spreadsheet applications
http://www.bom.gov.au/fwo/IDQ60901/IDQ60901.94562.axf

JavaScript Object Notation format (JSON) in row-major order
http://www.bom.gov.au/fwo/IDQ60901/IDQ60901.94562.json